createdAt,value
2023-03-20T00:01:16.465Z,16.27
2023-03-20T00:03:44.217Z,15.23
2023-03-20T00:06:17.594Z,14.87
2023-03-20T00:08:46.766Z,15.10
2023-03-20T00:11:28.872Z,13.80
2023-03-20T00:13:57.661Z,14.07
2023-03-20T00:16:29.105Z,15.03
2023-03-20T00:18:57.117Z,15.10
2023-03-20T00:21:24.812Z,15.27
2023-03-20T00:23:52.532Z,14.47
2023-03-20T00:26:20.348Z,13.97
2023-03-20T00:28:48.524Z,13.77
2023-03-20T00:31:20.318Z,13.97
2023-03-20T00:33:49.748Z,14.33
2023-03-20T00:36:17.596Z,13.60
2023-03-20T00:38:45.353Z,12.83
2023-03-20T00:41:21.124Z,12.63
2023-03-20T00:43:49.825Z,13.03
2023-03-20T00:46:17.723Z,13.47
2023-03-20T00:48:45.805Z,13.00
2023-03-20T00:51:14.935Z,13.40
2023-03-20T00:53:42.687Z,10.67
2023-03-20T00:56:24.435Z,12.67
2023-03-20T00:58:52.425Z,13.60
2023-03-20T01:01:20.245Z,13.03
2023-03-20T01:03:48.053Z,13.40
2023-03-20T01:06:19.107Z,11.23
2023-03-20T01:08:48.814Z,13.10
2023-03-20T01:11:17.698Z,12.70
2023-03-20T01:13:45.401Z,12.80
2023-03-20T01:16:19.980Z,10.40
2023-03-20T01:18:47.740Z,12.40
2023-03-20T01:21:15.500Z,13.00
2023-03-20T01:23:45.114Z,12.10
2023-03-20T01:26:21.428Z,11.47
2023-03-20T01:28:49.241Z,10.37
2023-03-20T01:31:17.537Z,10.63
2023-03-20T01:33:45.440Z,11.57
2023-03-20T01:36:13.785Z,11.20
2023-03-20T01:38:41.751Z,11.07
2023-03-20T01:41:13.291Z,10.00
2023-03-20T01:43:41.264Z,10.77
2023-03-20T01:46:17.580Z,12.33
2023-03-20T01:49:05.722Z,12.00
2023-03-20T01:51:35.595Z,11.80
2023-03-20T01:54:07.362Z,11.77
2023-03-20T01:56:39.314Z,10.17
2023-03-20T01:59:11.960Z,10.67
2023-03-20T02:01:40.296Z,11.03
2023-03-20T02:04:09.209Z,11.67
2023-03-20T02:06:38.340Z,11.63
2023-03-20T02:09:06.124Z,9.23
2023-03-20T02:11:34.005Z,10.97
2023-03-20T02:14:04.624Z,10.90
2023-03-20T02:16:32.399Z,10.83
2023-03-20T02:19:00.357Z,10.30
2023-03-20T02:21:39.376Z,9.03
2023-03-20T02:24:23.829Z,10.80
2023-03-20T02:26:57.070Z,10.50
2023-03-20T02:29:45.745Z,9.40
2023-03-20T02:32:28.270Z,8.97
2023-03-20T02:35:19.703Z,9.27
2023-03-20T02:37:58.372Z,9.50
2023-03-20T02:40:31.889Z,8.60
2023-03-20T02:43:02.103Z,8.20
2023-03-20T02:45:30.729Z,8.50
2023-03-20T02:48:05.871Z,8.90
2023-03-20T02:50:37.827Z,7.43
2023-03-20T02:53:12.464Z,7.13
2023-03-20T02:55:44.138Z,6.57
2023-03-20T02:58:14.700Z,7.23
2023-03-20T03:00:47.581Z,6.73
2023-03-20T03:03:18.309Z,8.97
2023-03-20T03:05:48.948Z,10.20
2023-03-20T03:08:19.709Z,9.43
2023-03-20T03:10:50.513Z,9.07
2023-03-20T03:13:20.277Z,9.10
2023-03-20T03:15:48.767Z,9.13
2023-03-20T03:18:19.394Z,9.50
2023-03-20T03:20:48.232Z,9.33
2023-03-20T03:23:19.986Z,9.00
2023-03-20T03:25:49.291Z,9.20
2023-03-20T03:28:24.218Z,8.60
2023-03-20T03:30:52.608Z,8.40
2023-03-20T03:33:22.475Z,8.53
2023-03-20T03:35:50.986Z,8.77
2023-03-20T03:38:26.372Z,7.37
2023-03-20T03:41:01.757Z,7.60
2023-03-20T03:43:33.362Z,7.83
2023-03-20T03:46:03.565Z,7.50
2023-03-20T03:48:33.783Z,7.77
2023-03-20T03:51:04.375Z,7.97
2023-03-20T03:53:34.587Z,7.53
2023-03-20T03:56:06.379Z,7.30
2023-03-20T03:58:36.154Z,7.20
2023-03-20T04:01:05.199Z,6.53
2023-03-20T04:03:36.387Z,7.50
2023-03-20T04:06:05.976Z,8.03
2023-03-20T04:08:34.656Z,7.70
2023-03-20T04:11:03.928Z,8.07
2023-03-20T04:13:31.648Z,7.20
2023-03-20T04:15:59.445Z,7.40
2023-03-20T04:18:27.184Z,6.80
2023-03-20T04:20:54.903Z,7.80
2023-03-20T04:23:22.747Z,7.57
2023-03-20T04:25:50.816Z,8.77
2023-03-20T04:28:20.084Z,8.63
2023-03-20T04:30:53.473Z,9.03
2023-03-20T04:33:21.235Z,9.07
2023-03-20T04:35:48.926Z,10.63
2023-03-20T04:38:17.172Z,10.97
2023-03-20T04:40:45.017Z,10.87
2023-03-20T04:43:12.703Z,11.57
2023-03-20T04:45:41.941Z,11.00
2023-03-20T04:48:09.971Z,10.70
2023-03-20T04:50:37.704Z,13.63
2023-03-20T04:53:05.829Z,12.87
2023-03-20T04:55:33.655Z,14.73
2023-03-20T04:58:01.437Z,14.20
2023-03-20T05:00:29.158Z,11.90
2023-03-20T05:02:58.616Z,11.67
2023-03-20T05:05:26.338Z,12.20
2023-03-20T05:07:54.863Z,13.07
2023-03-20T05:10:22.620Z,13.87
2023-03-20T05:12:50.622Z,12.90
2023-03-20T05:15:18.346Z,13.07
2023-03-20T05:17:46.081Z,13.83
2023-03-20T05:20:16.004Z,14.37
2023-03-20T05:22:43.802Z,14.33
2023-03-20T05:25:11.523Z,14.57
2023-03-20T05:27:39.224Z,14.00
2023-03-20T05:30:08.119Z,12.10
2023-03-20T05:32:37.078Z,13.50
2023-03-20T05:35:05.128Z,15.33
2023-03-20T05:37:34.401Z,14.67
2023-03-20T05:40:02.084Z,13.93
2023-03-20T05:42:29.759Z,13.37
2023-03-20T05:44:57.537Z,13.50
2023-03-20T05:47:26.290Z,15.30
2023-03-20T05:49:54.050Z,14.87
2023-03-20T05:52:21.789Z,15.33
2023-03-20T05:54:50.988Z,16.80
2023-03-20T05:57:18.745Z,16.33
2023-03-20T05:59:46.413Z,17.47
2023-03-20T06:02:14.158Z,15.83
2023-03-20T06:04:41.939Z,17.00
2023-03-20T06:07:09.692Z,17.30
2023-03-20T06:09:37.378Z,18.97
2023-03-20T06:12:06.938Z,18.13
2023-03-20T06:14:34.638Z,18.03
2023-03-20T06:17:02.330Z,17.20
2023-03-20T06:19:30.024Z,17.73
2023-03-20T06:21:57.690Z,18.73
2023-03-20T06:24:25.554Z,19.20
2023-03-20T06:26:53.266Z,17.93
2023-03-20T06:29:22.349Z,17.57
2023-03-20T06:31:50.143Z,17.63
2023-03-20T06:34:17.876Z,17.47
2023-03-20T06:36:45.687Z,21.37
2023-03-20T06:39:13.405Z,21.60
2023-03-20T06:41:41.161Z,21.70
2023-03-20T06:44:08.846Z,21.03
2023-03-20T06:46:38.035Z,17.77
2023-03-20T06:49:06.399Z,17.73
2023-03-20T06:51:34.063Z,18.27
2023-03-20T06:54:01.772Z,19.63
2023-03-20T06:56:29.564Z,19.10
2023-03-20T06:58:57.247Z,19.73
2023-03-20T07:01:25.046Z,20.70
2023-03-20T07:03:54.982Z,19.93
2023-03-20T07:06:23.070Z,19.30
2023-03-20T07:08:51.521Z,19.90
2023-03-20T07:11:19.330Z,18.17
2023-03-20T07:13:49.717Z,17.27
2023-03-20T07:16:18.080Z,18.10
2023-03-20T07:18:45.885Z,19.13
2023-03-20T07:21:18.861Z,16.97
2023-03-20T07:23:46.632Z,18.27
2023-03-20T07:26:14.390Z,17.73
2023-03-20T07:28:42.156Z,19.03
2023-03-20T07:31:11.976Z,20.67
2023-03-20T07:33:39.754Z,17.63
2023-03-20T07:36:07.920Z,17.03
2023-03-20T07:38:37.194Z,16.43
2023-03-20T07:41:04.917Z,17.07
2023-03-20T07:43:32.653Z,17.23
2023-03-20T07:46:02.718Z,15.73
2023-03-20T07:48:30.541Z,16.20
2023-03-20T07:50:58.220Z,18.13
2023-03-20T07:53:26.084Z,15.57
2023-03-20T07:55:56.730Z,15.27
2023-03-20T07:58:24.656Z,16.60
2023-03-20T08:00:52.506Z,15.10
2023-03-20T08:03:20.605Z,14.33
2023-03-20T08:05:48.354Z,12.63
2023-03-20T08:08:16.159Z,12.57
2023-03-20T08:10:43.972Z,12.93
2023-03-20T08:13:13.144Z,12.23
2023-03-20T08:15:40.937Z,12.13
2023-03-20T08:18:08.736Z,12.07
2023-03-20T08:20:36.468Z,12.20
2023-03-20T08:23:04.221Z,11.70
2023-03-20T08:25:33.698Z,11.77
2023-03-20T08:28:01.795Z,11.30
2023-03-20T08:30:32.003Z,11.93
2023-03-20T08:32:59.833Z,10.03
2023-03-20T08:35:33.398Z,10.70
2023-03-20T08:38:01.791Z,10.73
2023-03-20T08:40:29.577Z,10.77
2023-03-20T08:42:57.356Z,10.63
2023-03-20T08:45:26.380Z,10.70
2023-03-20T08:47:56.740Z,10.47
2023-03-20T08:50:24.556Z,10.53
2023-03-20T08:52:52.306Z,10.57
2023-03-20T08:55:20.077Z,10.73
2023-03-20T08:57:48.195Z,10.63
2023-03-20T09:00:16.654Z,11.20
2023-03-20T09:02:44.911Z,10.67
2023-03-20T09:05:14.034Z,11.60
2023-03-20T09:07:41.854Z,9.77
2023-03-20T09:10:10.420Z,10.40
2023-03-20T09:12:38.155Z,9.57
2023-03-20T09:15:06.928Z,9.30
2023-03-20T09:17:34.900Z,10.13
2023-03-20T09:20:02.629Z,10.00
2023-03-20T09:22:32.216Z,11.33
2023-03-20T09:24:59.956Z,11.23
2023-03-20T09:27:27.773Z,9.90
2023-03-20T09:29:55.464Z,10.60
2023-03-20T09:32:23.164Z,10.90
2023-03-20T09:34:50.879Z,10.83
2023-03-20T09:37:18.585Z,10.60
2023-03-20T09:39:47.730Z,11.40
2023-03-20T09:42:22.507Z,9.83
2023-03-20T09:44:54.998Z,10.73
2023-03-20T09:47:27.696Z,10.90
2023-03-20T09:50:02.742Z,11.00
2023-03-20T09:52:32.227Z,10.87
2023-03-20T09:55:03.283Z,10.53
2023-03-20T09:57:35.238Z,9.73
2023-03-20T10:00:05.815Z,9.67
2023-03-20T10:02:38.728Z,9.93
2023-03-20T10:05:14.029Z,9.93
2023-03-20T10:07:43.437Z,10.33
2023-03-20T10:10:14.594Z,10.40
2023-03-20T10:12:48.524Z,10.80
2023-03-20T10:15:20.854Z,10.77
2023-03-20T10:17:52.855Z,10.90
2023-03-20T10:20:26.429Z,10.93
2023-03-20T10:22:56.421Z,11.93
2023-03-20T10:25:29.419Z,10.50
2023-03-20T10:27:59.210Z,10.57
2023-03-20T10:30:34.462Z,10.70
2023-03-20T10:33:07.979Z,11.80
2023-03-20T10:35:39.388Z,9.87
2023-03-20T10:38:24.148Z,9.83
2023-03-20T10:40:54.282Z,9.90
2023-03-20T10:43:23.528Z,10.90
2023-03-20T10:45:53.921Z,9.33
2023-03-20T10:48:24.080Z,9.43
2023-03-20T10:50:53.168Z,9.60
2023-03-20T10:53:25.924Z,10.50
2023-03-20T10:55:56.222Z,10.53
2023-03-20T10:58:24.965Z,10.87
2023-03-20T11:00:53.045Z,10.37
2023-03-20T11:03:23.571Z,10.17
2023-03-20T11:06:08.537Z,9.97
2023-03-20T11:08:38.872Z,10.20
2023-03-20T11:11:08.050Z,9.80
2023-03-20T11:13:36.799Z,9.87
2023-03-20T11:16:21.601Z,10.97
2023-03-20T11:18:50.678Z,10.33
2023-03-20T11:21:20.412Z,10.80
2023-03-20T11:23:48.475Z,10.90
2023-03-20T11:26:18.571Z,11.80
2023-03-20T11:28:51.318Z,10.33
2023-03-20T11:31:20.927Z,10.93
2023-03-20T11:33:52.249Z,10.63
2023-03-20T11:36:27.706Z,11.17
2023-03-20T11:38:59.302Z,12.23
2023-03-20T11:41:29.364Z,11.90
2023-03-20T11:43:57.198Z,11.77
2023-03-20T11:46:25.789Z,11.27
2023-03-20T11:49:05.473Z,11.60
2023-03-20T11:51:35.340Z,11.73
2023-03-20T11:54:03.963Z,9.97
2023-03-20T11:56:33.899Z,10.43
2023-03-20T11:59:04.228Z,10.97
2023-03-20T12:01:38.994Z,11.70
2023-03-20T12:04:08.250Z,11.63
2023-03-20T12:06:41.441Z,11.50
2023-03-20T12:09:13.836Z,10.23
2023-03-20T12:11:48.356Z,12.57
2023-03-20T12:14:28.598Z,11.67
2023-03-20T12:16:58.055Z,12.40
2023-03-20T12:19:30.763Z,11.87
2023-03-20T12:22:03.271Z,11.77
2023-03-20T12:24:34.778Z,11.33
2023-03-20T12:27:12.740Z,11.80
2023-03-20T12:29:43.103Z,11.27
2023-03-20T12:32:15.771Z,12.17
2023-03-20T12:34:47.017Z,10.83
2023-03-20T12:37:18.426Z,12.60
2023-03-20T12:39:49.335Z,11.73
2023-03-20T12:42:24.695Z,13.27
2023-03-20T12:44:54.074Z,12.47
2023-03-20T12:47:34.726Z,13.00
2023-03-20T12:50:06.275Z,13.10
2023-03-20T12:52:38.235Z,13.97
2023-03-20T12:55:13.467Z,13.67
2023-03-20T12:57:46.646Z,12.47
2023-03-20T13:00:20.242Z,12.67
2023-03-20T13:02:53.192Z,12.07
2023-03-20T13:05:27.885Z,12.10
2023-03-20T13:08:04.006Z,11.27
2023-03-20T13:10:34.330Z,11.47
2023-03-20T13:13:08.191Z,11.97
2023-03-20T13:15:48.269Z,13.70
2023-03-20T13:18:19.340Z,13.97
2023-03-20T13:20:49.656Z,13.10
2023-03-20T13:23:23.252Z,12.80
2023-03-20T13:25:59.323Z,13.70
2023-03-20T13:28:31.318Z,11.03
2023-03-20T13:31:03.634Z,12.43
2023-03-20T13:33:40.492Z,11.60
2023-03-20T13:36:12.605Z,10.87
2023-03-20T13:38:43.365Z,12.37
2023-03-20T13:41:11.542Z,12.33
2023-03-20T13:43:42.997Z,10.90
2023-03-20T13:46:12.006Z,11.27
2023-03-20T13:48:40.426Z,11.67
2023-03-20T13:51:19.057Z,12.10
2023-03-20T13:53:52.545Z,10.57
2023-03-20T13:56:24.046Z,11.00
2023-03-20T13:59:03.753Z,11.47
2023-03-20T14:01:38.121Z,11.00
2023-03-20T14:04:06.434Z,10.53
2023-03-20T14:06:53.819Z,11.33
2023-03-20T14:09:29.617Z,11.60
2023-03-20T14:11:58.089Z,10.50
2023-03-20T14:14:28.984Z,10.27
2023-03-20T14:17:03.979Z,11.03
2023-03-20T14:19:31.678Z,11.80
2023-03-20T14:21:59.793Z,12.17
2023-03-20T14:24:28.572Z,11.53
2023-03-20T14:26:57.916Z,13.67
2023-03-20T14:29:37.546Z,12.00
2023-03-20T14:32:06.677Z,11.77
2023-03-20T14:34:46.082Z,12.87
2023-03-20T14:37:28.424Z,12.77
2023-03-20T14:39:59.931Z,11.70
2023-03-20T14:42:31.290Z,12.60
2023-03-20T14:45:16.088Z,12.00
2023-03-20T14:47:48.169Z,11.77
2023-03-20T14:50:19.623Z,15.13
2023-03-20T14:52:54.431Z,15.67
2023-03-20T14:55:32.734Z,16.00
2023-03-20T14:58:04.109Z,14.83
2023-03-20T15:00:35.944Z,13.70
2023-03-20T15:03:10.286Z,13.80
2023-03-20T15:05:38.843Z,14.27
2023-03-20T15:08:08.579Z,13.83
2023-03-20T15:10:38.741Z,14.63
2023-03-20T15:13:07.308Z,11.20
2023-03-20T15:15:36.431Z,10.77
2023-03-20T15:18:05.085Z,11.07
2023-03-20T15:20:32.812Z,10.47
2023-03-20T15:23:01.328Z,10.37
2023-03-20T15:25:30.413Z,10.70
2023-03-20T15:27:58.146Z,10.37
2023-03-20T15:30:26.717Z,8.80
2023-03-20T15:32:56.236Z,8.70
2023-03-20T15:35:25.059Z,8.63
2023-03-20T15:37:53.531Z,7.73
2023-03-20T15:40:24.573Z,7.33
2023-03-20T15:42:55.817Z,7.03
2023-03-20T15:45:26.348Z,6.93
2023-03-20T15:48:02.810Z,7.30
2023-03-20T15:50:32.717Z,7.30
2023-03-20T15:53:00.757Z,7.50
2023-03-20T15:55:29.250Z,6.93
2023-03-20T15:57:57.675Z,7.07
2023-03-20T16:00:28.313Z,6.90
2023-03-20T16:02:56.221Z,6.70
2023-03-20T16:05:26.570Z,6.93
2023-03-20T16:07:54.466Z,6.73
2023-03-20T16:10:23.906Z,6.67
2023-03-20T16:12:54.593Z,6.80
2023-03-20T16:15:23.250Z,7.07
2023-03-20T16:17:52.920Z,7.13
2023-03-20T16:20:21.686Z,7.17
2023-03-20T16:22:51.468Z,7.17
2023-03-20T16:25:19.742Z,6.83
2023-03-20T16:27:50.453Z,6.70
2023-03-20T16:30:20.155Z,6.37
2023-03-20T16:32:51.330Z,6.90
2023-03-20T16:35:20.536Z,7.23
2023-03-20T16:37:49.758Z,7.97
2023-03-20T16:40:25.217Z,7.20
2023-03-20T16:42:56.482Z,7.33
2023-03-20T16:45:29.837Z,8.07
2023-03-20T16:48:22.694Z,8.37
2023-03-20T16:50:57.019Z,7.57
2023-03-20T16:53:24.886Z,15.93
2023-03-20T16:55:56.854Z,17.20
2023-03-20T16:58:26.346Z,18.30
2023-03-20T17:00:58.803Z,18.27
2023-03-20T17:03:27.869Z,18.77
2023-03-20T17:05:57.052Z,19.57
2023-03-20T17:08:28.197Z,20.00
2023-03-20T17:10:59.242Z,21.83
2023-03-20T17:13:27.244Z,25.33
2023-03-20T17:15:55.684Z,26.33
2023-03-20T17:18:23.383Z,34.30
2023-03-20T17:20:51.098Z,36.30
2023-03-20T17:23:20.774Z,33.20
2023-03-20T17:25:49.209Z,34.83
2023-03-20T17:28:20.572Z,34.87
2023-03-20T17:30:49.007Z,37.00
2023-03-20T17:33:19.020Z,40.27
2023-03-20T17:35:47.820Z,40.37
2023-03-20T17:38:17.491Z,43.30
2023-03-20T17:40:45.485Z,41.27
2023-03-20T17:43:13.800Z,39.77
2023-03-20T17:45:42.995Z,37.80
2023-03-20T17:48:15.805Z,36.17
2023-03-20T17:50:44.226Z,35.50
2023-03-20T17:53:16.787Z,38.43
2023-03-20T17:55:44.656Z,35.30
2023-03-20T17:58:21.085Z,35.50
2023-03-20T18:00:50.573Z,35.10
2023-03-20T18:03:18.770Z,35.43
2023-03-20T18:05:46.947Z,35.37
2023-03-20T18:08:15.798Z,33.60
2023-03-20T18:10:44.050Z,34.23
2023-03-20T18:13:11.817Z,32.70
2023-03-20T18:15:40.371Z,32.27
2023-03-20T18:18:09.687Z,34.60
2023-03-20T18:20:38.547Z,33.33
2023-03-20T18:23:06.726Z,34.63
2023-03-20T18:25:34.938Z,33.67
2023-03-20T18:28:03.219Z,31.30
2023-03-20T18:30:33.775Z,32.00
2023-03-20T18:33:01.700Z,32.30
2023-03-20T18:35:30.905Z,33.40
2023-03-20T18:37:58.650Z,37.73
2023-03-20T18:40:37.405Z,33.93
2023-03-20T18:43:05.572Z,35.77
2023-03-20T18:45:33.748Z,32.40
2023-03-20T18:48:03.861Z,32.40
2023-03-20T18:50:35.013Z,29.90
2023-03-20T18:53:04.995Z,32.10
2023-03-20T18:55:32.793Z,32.43
2023-03-20T18:58:03.651Z,36.17
2023-03-20T19:00:35.929Z,37.33
2023-03-20T19:03:03.896Z,36.13
2023-03-20T19:05:32.055Z,33.97
2023-03-20T19:08:00.187Z,32.10
2023-03-20T19:10:30.052Z,32.53
2023-03-20T19:12:58.312Z,31.40
2023-03-20T19:15:28.123Z,30.30
2023-03-20T19:17:56.207Z,31.87
2023-03-20T19:20:36.210Z,31.17
2023-03-20T19:23:04.841Z,31.87
2023-03-20T19:25:32.900Z,27.57
2023-03-20T19:28:00.697Z,33.07
2023-03-20T19:30:32.121Z,30.30
2023-03-20T19:32:59.999Z,27.13
2023-03-20T19:38:16.301Z,28.80
2023-03-20T19:40:44.644Z,29.60
2023-03-20T19:43:12.382Z,30.07
2023-03-20T19:45:42.969Z,27.93
2023-03-20T19:48:15.357Z,29.60
2023-03-20T19:50:46.268Z,26.80
2023-03-20T19:53:16.639Z,27.63
2023-03-20T19:55:44.332Z,28.83
2023-03-20T19:58:12.641Z,27.57
2023-03-20T20:00:59.539Z,27.03
2023-03-20T20:03:27.879Z,25.43
2023-03-20T20:05:55.939Z,25.53
2023-03-20T20:08:38.284Z,24.37
2023-03-20T20:11:12.988Z,23.63
2023-03-20T20:14:03.773Z,21.87
2023-03-20T20:16:30.690Z,24.33
2023-03-20T20:18:58.434Z,25.97
2023-03-20T20:22:13.454Z,27.77
2023-03-20T20:24:16.091Z,27.27
2023-03-20T20:26:53.828Z,29.70
2023-03-20T20:29:22.579Z,27.87
2023-03-20T20:31:51.867Z,25.97
2023-03-20T20:39:56.123Z,26.20
2023-03-20T20:42:23.935Z,25.03
2023-03-20T20:44:51.621Z,23.30
2023-03-20T20:47:21.381Z,26.03
2023-03-20T20:49:49.109Z,25.23
2023-03-20T20:52:17.727Z,21.63
2023-03-20T20:54:45.701Z,21.60
2023-03-20T20:57:14.394Z,21.63
2023-03-20T20:59:42.156Z,20.87
2023-03-20T21:02:11.981Z,21.63
2023-03-20T21:04:41.890Z,19.73
2023-03-20T21:07:11.823Z,20.37
2023-03-20T21:09:40.071Z,21.87
2023-03-20T21:12:08.559Z,22.70
2023-03-20T21:14:36.605Z,23.23
2023-03-20T21:17:04.949Z,22.20
2023-03-20T21:19:34.899Z,22.30
2023-03-20T21:22:03.998Z,20.93
2023-03-20T21:24:34.355Z,20.13
2023-03-20T21:27:02.746Z,19.40
2023-03-20T21:29:30.803Z,20.47
2023-03-20T21:31:58.618Z,19.83
2023-03-20T21:34:26.507Z,21.90
2023-03-20T21:36:54.282Z,22.53
2023-03-20T21:39:23.389Z,25.63
2023-03-20T21:41:51.153Z,27.53
2023-03-20T21:44:51.518Z,26.03
2023-03-20T21:47:58.621Z,27.27
2023-03-20T21:56:29.680Z,26.97
2023-03-20T22:01:46.013Z,26.13
2023-03-20T22:10:06.099Z,21.73
2023-03-20T22:15:46.308Z,19.60
2023-03-20T22:18:39.119Z,19.83
2023-03-20T22:21:42.400Z,21.10
2023-03-20T22:35:38.581Z,19.37
2023-03-20T22:38:41.688Z,17.50
2023-03-20T22:46:10.066Z,13.07
2023-03-20T22:48:43.962Z,13.10
2023-03-20T22:51:13.650Z,13.03
2023-03-20T22:53:41.394Z,10.83
2023-03-20T22:56:09.428Z,11.30
2023-03-20T22:58:37.133Z,12.00
2023-03-20T23:01:06.526Z,12.33
2023-03-20T23:03:41.572Z,12.97
2023-03-20T23:06:10.504Z,12.97
2023-03-20T23:08:48.109Z,11.87
2023-03-20T23:11:20.052Z,11.87
2023-03-20T23:13:47.902Z,9.97
2023-03-20T23:16:17.204Z,10.80
2023-03-20T23:18:44.896Z,11.87
2023-03-20T23:21:12.734Z,10.73
2023-03-20T23:23:41.170Z,10.83
2023-03-20T23:26:09.536Z,10.03
2023-03-20T23:28:37.785Z,10.30
2023-03-20T23:31:10.493Z,11.90
2023-03-20T23:33:40.244Z,11.13
2023-03-20T23:36:24.759Z,11.03
2023-03-20T23:38:56.494Z,12.07
2023-03-20T23:41:49.253Z,9.97
2023-03-20T23:44:12.202Z,10.63
2023-03-20T23:46:39.893Z,10.33
2023-03-20T23:49:08.959Z,10.07
2023-03-20T23:51:36.784Z,10.40
2023-03-20T23:54:04.467Z,9.33
2023-03-20T23:56:32.134Z,9.13
2023-03-20T23:59:11.193Z,9.17
